sensor_id;sensor_type;location;lat;lon;timestamp;pressure;altitude;pressure_sealevel;temperature;humidity
50854;BME280;44154;45.506;-122.806;2023-03-16T00:02:15;101503.47;;;26.12;30.64
50854;BME280;44154;45.506;-122.806;2023-03-16T00:04:42;101499.75;;;26.02;30.49
50854;BME280;44154;45.506;-122.806;2023-03-16T00:07:13;101491.28;;;25.91;30.50
50854;BME280;44154;45.506;-122.806;2023-03-16T00:09:40;101491.03;;;25.76;31.09
50854;BME280;44154;45.506;-122.806;2023-03-16T00:12:11;101489.75;;;25.67;30.80
50854;BME280;44154;45.506;-122.806;2023-03-16T00:14:42;101491.06;;;25.64;30.95
50854;BME280;44154;45.506;-122.806;2023-03-16T00:17:13;101501.13;;;25.58;31.31
50854;BME280;44154;45.506;-122.806;2023-03-16T00:19:48;101489.56;;;25.56;30.99
50854;BME280;44154;45.506;-122.806;2023-03-16T00:22:15;101494.97;;;25.51;31.01
50854;BME280;44154;45.506;-122.806;2023-03-16T00:24:42;101495.41;;;25.60;31.01
50854;BME280;44154;45.506;-122.806;2023-03-16T00:27:10;101491.25;;;25.57;31.04
50854;BME280;44154;45.506;-122.806;2023-03-16T00:29:49;101496.59;;;25.52;31.08
50854;BME280;44154;45.506;-122.806;2023-03-16T00:32:26;101488.06;;;25.49;31.20
50854;BME280;44154;45.506;-122.806;2023-03-16T00:34:53;101479.91;;;25.37;31.19
50854;BME280;44154;45.506;-122.806;2023-03-16T00:37:21;101489.25;;;25.41;31.29
50854;BME280;44154;45.506;-122.806;2023-03-16T00:39:48;101484.66;;;25.30;31.28
50854;BME280;44154;45.506;-122.806;2023-03-16T00:42:17;101481.06;;;25.29;31.28
50854;BME280;44154;45.506;-122.806;2023-03-16T00:44:44;101501.69;;;25.32;31.34
50854;BME280;44154;45.506;-122.806;2023-03-16T00:47:11;101488.31;;;25.35;31.48
50854;BME280;44154;45.506;-122.806;2023-03-16T00:49:42;101479.28;;;25.63;31.06
50854;BME280;44154;45.506;-122.806;2023-03-16T00:52:11;101494.38;;;25.95;30.59
50854;BME280;44154;45.506;-122.806;2023-03-16T00:54:45;101495.75;;;26.09;30.39
50854;BME280;44154;45.506;-122.806;2023-03-16T00:57:14;101486.34;;;26.05;30.49
50854;BME280;44154;45.506;-122.806;2023-03-16T00:59:44;101493.81;;;26.10;30.22
50854;BME280;44154;45.506;-122.806;2023-03-16T01:02:11;101482.88;;;25.81;30.26
50854;BME280;44154;45.506;-122.806;2023-03-16T01:04:38;101484.19;;;25.78;30.90
50854;BME280;44154;45.506;-122.806;2023-03-16T01:07:09;101484.50;;;25.65;31.21
50854;BME280;44154;45.506;-122.806;2023-03-16T01:09:38;101489.34;;;25.75;31.13
50854;BME280;44154;45.506;-122.806;2023-03-16T01:12:07;101491.66;;;25.66;31.34
50854;BME280;44154;45.506;-122.806;2023-03-16T01:14:34;101496.22;;;25.60;31.44
50854;BME280;44154;45.506;-122.806;2023-03-16T01:17:02;101507.88;;;25.68;31.61
50854;BME280;44154;45.506;-122.806;2023-03-16T01:19:28;101505.25;;;25.73;31.62
50854;BME280;44154;45.506;-122.806;2023-03-16T01:21:55;101510.91;;;25.83;31.63
50854;BME280;44154;45.506;-122.806;2023-03-16T01:24:21;101513.22;;;25.91;31.50
50854;BME280;44154;45.506;-122.806;2023-03-16T01:26:48;101505.91;;;25.97;31.69
50854;BME280;44154;45.506;-122.806;2023-03-16T01:29:14;101510.22;;;26.05;31.75
50854;BME280;44154;45.506;-122.806;2023-03-16T01:31:41;101511.84;;;26.06;31.51
50854;BME280;44154;45.506;-122.806;2023-03-16T01:34:07;101488.88;;;25.95;30.98
50854;BME280;44154;45.506;-122.806;2023-03-16T01:36:33;101513.03;;;26.10;30.89
50854;BME280;44154;45.506;-122.806;2023-03-16T01:38:59;101512.78;;;26.11;30.88
50854;BME280;44154;45.506;-122.806;2023-03-16T01:41:26;101508.13;;;26.12;30.54
50854;BME280;44154;45.506;-122.806;2023-03-16T01:43:52;101503.47;;;26.12;30.32
50854;BME280;44154;45.506;-122.806;2023-03-16T01:46:26;101478.25;;;25.98;30.00
50854;BME280;44154;45.506;-122.806;2023-03-16T01:49:06;101512.28;;;26.14;30.25
50854;BME280;44154;45.506;-122.806;2023-03-16T01:51:42;101490.41;;;26.03;30.87
50854;BME280;44154;45.506;-122.806;2023-03-16T01:56:57;101508.72;;;26.14;31.24
50854;BME280;44154;45.506;-122.806;2023-03-16T02:02:20;101514.13;;;26.09;31.12
50854;BME280;44154;45.506;-122.806;2023-03-16T02:05:00;101501.78;;;25.94;31.15
50854;BME280;44154;45.506;-122.806;2023-03-16T02:07:33;101508.78;;;26.02;31.41
50854;BME280;44154;45.506;-122.806;2023-03-16T02:10:00;101523.72;;;25.94;31.39
50854;BME280;44154;45.506;-122.806;2023-03-16T02:12:28;101522.44;;;25.85;31.93
50854;BME280;44154;45.506;-122.806;2023-03-16T02:14:54;101526.25;;;25.67;32.10
50854;BME280;44154;45.506;-122.806;2023-03-16T02:17:24;101526.38;;;25.60;32.23
50854;BME280;44154;45.506;-122.806;2023-03-16T02:20:04;101526.88;;;25.57;32.32
50854;BME280;44154;45.506;-122.806;2023-03-16T02:22:37;101528.31;;;25.48;32.94
50854;BME280;44154;45.506;-122.806;2023-03-16T02:25:07;101514.91;;;25.35;32.65
50854;BME280;44154;45.506;-122.806;2023-03-16T02:30:15;101532.00;;;25.54;32.08
50854;BME280;44154;45.506;-122.806;2023-03-16T02:32:42;101524.13;;;25.57;32.32
50854;BME280;44154;45.506;-122.806;2023-03-16T02:35:10;101529.13;;;25.60;32.24
50854;BME280;44154;45.506;-122.806;2023-03-16T02:37:38;101518.66;;;25.57;32.10
50854;BME280;44154;45.506;-122.806;2023-03-16T02:40:23;101527.44;;;25.59;32.35
50854;BME280;44154;45.506;-122.806;2023-03-16T02:42:55;101524.63;;;25.54;32.61
50854;BME280;44154;45.506;-122.806;2023-03-16T02:45:28;101531.47;;;25.40;32.47
50854;BME280;44154;45.506;-122.806;2023-03-16T02:48:00;101530.84;;;25.38;32.37
50854;BME280;44154;45.506;-122.806;2023-03-16T02:50:28;101513.34;;;25.39;32.58
50854;BME280;44154;45.506;-122.806;2023-03-16T02:52:54;101541.16;;;25.59;32.27
50854;BME280;44154;45.506;-122.806;2023-03-16T02:55:20;101548.41;;;25.66;31.95
50854;BME280;44154;45.506;-122.806;2023-03-16T02:57:47;101534.53;;;25.72;32.09
50854;BME280;44154;45.506;-122.806;2023-03-16T03:00:13;101538.84;;;25.68;31.91
50854;BME280;44154;45.506;-122.806;2023-03-16T03:02:43;101538.22;;;25.49;32.57
50854;BME280;44154;45.506;-122.806;2023-03-16T03:05:10;101545.19;;;25.57;32.08
50854;BME280;44154;45.506;-122.806;2023-03-16T03:07:36;101548.19;;;25.55;32.54
50854;BME280;44154;45.506;-122.806;2023-03-16T03:10:04;101537.47;;;25.54;32.58
50854;BME280;44154;45.506;-122.806;2023-03-16T03:12:34;101547.88;;;25.52;32.29
50854;BME280;44154;45.506;-122.806;2023-03-16T03:15:00;101554.44;;;25.39;32.87
50854;BME280;44154;45.506;-122.806;2023-03-16T03:17:26;101540.63;;;25.22;32.55
50854;BME280;44154;45.506;-122.806;2023-03-16T03:19:59;101551.97;;;25.37;32.54
50854;BME280;44154;45.506;-122.806;2023-03-16T03:22:26;101555.53;;;25.38;32.47
50854;BME280;44154;45.506;-122.806;2023-03-16T03:24:53;101546.13;;;25.22;32.65
50854;BME280;44154;45.506;-122.806;2023-03-16T03:27:20;101556.50;;;25.32;32.77
50854;BME280;44154;45.506;-122.806;2023-03-16T03:29:47;101559.72;;;25.17;33.57
50854;BME280;44154;45.506;-122.806;2023-03-16T03:32:13;101537.69;;;25.11;33.12
50854;BME280;44154;45.506;-122.806;2023-03-16T03:34:39;101562.66;;;25.39;33.00
50854;BME280;44154;45.506;-122.806;2023-03-16T03:37:07;101514.66;;;25.24;32.60
50854;BME280;44154;45.506;-122.806;2023-03-16T03:39:33;101566.50;;;25.67;32.16
50854;BME280;44154;45.506;-122.806;2023-03-16T03:41:59;101541.88;;;25.55;32.09
50854;BME280;44154;45.506;-122.806;2023-03-16T03:44:27;101574.72;;;25.67;32.27
50854;BME280;44154;45.506;-122.806;2023-03-16T03:46:53;101577.88;;;25.58;32.27
50854;BME280;44154;45.506;-122.806;2023-03-16T03:49:19;101581.94;;;25.56;32.03
50854;BME280;44154;45.506;-122.806;2023-03-16T03:51:45;101564.44;;;25.45;32.35
50854;BME280;44154;45.506;-122.806;2023-03-16T03:54:12;101578.84;;;25.52;32.36
50854;BME280;44154;45.506;-122.806;2023-03-16T03:56:38;101576.59;;;25.49;32.14
50854;BME280;44154;45.506;-122.806;2023-03-16T03:59:04;101578.25;;;25.50;32.12
50854;BME280;44154;45.506;-122.806;2023-03-16T04:01:30;101582.06;;;25.49;32.35
50854;BME280;44154;45.506;-122.806;2023-03-16T04:03:56;101571.91;;;25.50;32.21
50854;BME280;44154;45.506;-122.806;2023-03-16T04:06:22;101575.41;;;25.45;32.02
50854;BME280;44154;45.506;-122.806;2023-03-16T04:08:48;101571.84;;;25.44;32.47
50854;BME280;44154;45.506;-122.806;2023-03-16T04:11:15;101579.00;;;25.34;33.07
50854;BME280;44154;45.506;-122.806;2023-03-16T04:13:41;101578.03;;;25.28;33.29
50854;BME280;44154;45.506;-122.806;2023-03-16T04:16:08;101563.25;;;25.29;32.95
50854;BME280;44154;45.506;-122.806;2023-03-16T04:18:34;101583.94;;;25.60;32.30
50854;BME280;44154;45.506;-122.806;2023-03-16T04:21:06;101574.59;;;25.73;32.05
50854;BME280;44154;45.506;-122.806;2023-03-16T04:23:33;101571.03;;;25.73;32.02
50854;BME280;44154;45.506;-122.806;2023-03-16T04:26:00;101573.78;;;25.73;32.04
50854;BME280;44154;45.506;-122.806;2023-03-16T04:28:26;101570.44;;;25.71;31.94
50854;BME280;44154;45.506;-122.806;2023-03-16T04:30:53;101563.78;;;25.67;32.03
50854;BME280;44154;45.506;-122.806;2023-03-16T04:33:20;101566.50;;;25.67;31.99
50854;BME280;44154;45.506;-122.806;2023-03-16T04:35:47;101562.75;;;25.56;31.80
50854;BME280;44154;45.506;-122.806;2023-03-16T04:38:13;101554.16;;;25.52;32.16
50854;BME280;44154;45.506;-122.806;2023-03-16T04:40:39;101570.13;;;25.55;31.89
50854;BME280;44154;45.506;-122.806;2023-03-16T04:43:05;101570.59;;;25.52;31.84
50854;BME280;44154;45.506;-122.806;2023-03-16T04:45:32;101573.84;;;25.49;32.20
50854;BME280;44154;45.506;-122.806;2023-03-16T04:47:58;101569.09;;;25.44;32.22
50854;BME280;44154;45.506;-122.806;2023-03-16T04:50:24;101544.94;;;25.30;32.00
50854;BME280;44154;45.506;-122.806;2023-03-16T04:52:50;101566.59;;;25.43;32.38
50854;BME280;44154;45.506;-122.806;2023-03-16T04:55:16;101570.66;;;25.28;33.21
50854;BME280;44154;45.506;-122.806;2023-03-16T04:57:43;101570.78;;;25.22;33.42
50854;BME280;44154;45.506;-122.806;2023-03-16T05:00:09;101566.22;;;25.39;32.95
50854;BME280;44154;45.506;-122.806;2023-03-16T05:02:37;101565.81;;;25.59;32.52
50854;BME280;44154;45.506;-122.806;2023-03-16T05:05:04;101558.88;;;25.69;32.05
50854;BME280;44154;45.506;-122.806;2023-03-16T05:07:31;101552.41;;;25.75;31.64
50854;BME280;44154;45.506;-122.806;2023-03-16T05:09:57;101553.16;;;25.70;31.85
50854;BME280;44154;45.506;-122.806;2023-03-16T05:12:23;101555.97;;;25.75;31.60
50854;BME280;44154;45.506;-122.806;2023-03-16T05:14:49;101557.34;;;25.73;31.74
50854;BME280;44154;45.506;-122.806;2023-03-16T05:17:15;101554.22;;;25.69;31.71
50854;BME280;44154;45.506;-122.806;2023-03-16T05:19:41;101539.97;;;25.55;31.70
50854;BME280;44154;45.506;-122.806;2023-03-16T05:22:08;101537.38;;;25.49;31.94
50854;BME280;44154;45.506;-122.806;2023-03-16T05:24:34;101547.03;;;25.51;31.88
50854;BME280;44154;45.506;-122.806;2023-03-16T05:27:02;101537.53;;;25.42;32.03
50854;BME280;44154;45.506;-122.806;2023-03-16T05:29:28;101551.66;;;25.51;32.04
50854;BME280;44154;45.506;-122.806;2023-03-16T05:31:56;101558.13;;;25.44;32.10
50854;BME280;44154;45.506;-122.806;2023-03-16T05:34:24;101560.66;;;25.34;33.03
50854;BME280;44154;45.506;-122.806;2023-03-16T05:36:50;101562.78;;;25.20;33.43
50854;BME280;44154;45.506;-122.806;2023-03-16T05:39:16;101565.06;;;25.23;33.33
50854;BME280;44154;45.506;-122.806;2023-03-16T05:41:43;101544.06;;;25.41;32.70
50854;BME280;44154;45.506;-122.806;2023-03-16T05:44:09;101540.38;;;25.47;32.26
50854;BME280;44154;45.506;-122.806;2023-03-16T05:46:35;101541.75;;;25.61;31.99
50854;BME280;44154;45.506;-122.806;2023-03-16T05:49:02;101536.91;;;25.52;31.65
50854;BME280;44154;45.506;-122.806;2023-03-16T05:51:28;101545.31;;;25.62;31.89
50854;BME280;44154;45.506;-122.806;2023-03-16T05:53:55;101547.63;;;25.53;31.91
50854;BME280;44154;45.506;-122.806;2023-03-16T05:56:25;101543.69;;;25.49;31.77
50854;BME280;44154;45.506;-122.806;2023-03-16T05:58:53;101549.78;;;25.51;31.83
50854;BME280;44154;45.506;-122.806;2023-03-16T06:01:20;101539.53;;;25.47;31.53
50854;BME280;44154;45.506;-122.806;2023-03-16T06:03:47;101538.59;;;25.41;31.87
50854;BME280;44154;45.506;-122.806;2023-03-16T06:06:15;101547.47;;;25.31;31.83
50854;BME280;44154;45.506;-122.806;2023-03-16T06:08:42;101539.25;;;25.31;31.87
50854;BME280;44154;45.506;-122.806;2023-03-16T06:11:08;101533.97;;;25.30;32.40
50854;BME280;44154;45.506;-122.806;2023-03-16T06:13:35;101532.78;;;25.14;33.16
50854;BME280;44154;45.506;-122.806;2023-03-16T06:16:01;101534.81;;;25.18;33.09
50854;BME280;44154;45.506;-122.806;2023-03-16T06:18:28;101541.81;;;25.38;32.53
50854;BME280;44154;45.506;-122.806;2023-03-16T06:20:54;101538.22;;;25.49;32.38
50854;BME280;44154;45.506;-122.806;2023-03-16T06:23:20;101527.94;;;25.56;31.95
50854;BME280;44154;45.506;-122.806;2023-03-16T06:25:47;101534.84;;;25.59;31.82
50854;BME280;44154;45.506;-122.806;2023-03-16T06:28:14;101531.50;;;25.57;31.55
50854;BME280;44154;45.506;-122.806;2023-03-16T06:30:40;101537.88;;;25.45;31.71
50854;BME280;44154;45.506;-122.806;2023-03-16T06:33:07;101528.50;;;25.30;32.20
50854;BME280;44154;45.506;-122.806;2023-03-16T06:35:33;101539.81;;;25.33;32.03
50854;BME280;44154;45.506;-122.806;2023-03-16T06:37:59;101524.91;;;25.29;31.81
50854;BME280;44154;45.506;-122.806;2023-03-16T06:40:25;101532.88;;;25.31;31.71
50854;BME280;44154;45.506;-122.806;2023-03-16T06:42:51;101529.44;;;25.23;32.05
50854;BME280;44154;45.506;-122.806;2023-03-16T06:45:18;101517.09;;;25.09;32.15
50854;BME280;44154;45.506;-122.806;2023-03-16T06:47:47;101536.88;;;25.11;33.38
50854;BME280;44154;45.506;-122.806;2023-03-16T06:50:13;101540.19;;;25.13;33.94
50854;BME280;44154;45.506;-122.806;2023-03-16T06:52:40;101540.28;;;25.30;33.62
50854;BME280;44154;45.506;-122.806;2023-03-16T06:55:06;101534.97;;;25.52;33.10
50854;BME280;44154;45.506;-122.806;2023-03-16T06:57:33;101544.00;;;25.65;32.70
50854;BME280;44154;45.506;-122.806;2023-03-16T06:59:59;101541.34;;;25.70;32.23
50854;BME280;44154;45.506;-122.806;2023-03-16T07:02:27;101530.78;;;25.61;31.81
50854;BME280;44154;45.506;-122.806;2023-03-16T07:04:53;101535.91;;;25.58;32.27
50854;BME280;44154;45.506;-122.806;2023-03-16T07:07:20;101539.72;;;25.57;32.84
50854;BME280;44154;45.506;-122.806;2023-03-16T07:09:46;101541.88;;;25.55;31.98
50854;BME280;44154;45.506;-122.806;2023-03-16T07:12:12;101538.22;;;25.49;31.99
50854;BME280;44154;45.506;-122.806;2023-03-16T07:14:39;101531.09;;;25.36;32.13
50854;BME280;44154;45.506;-122.806;2023-03-16T07:17:05;101535.53;;;25.25;32.10
50854;BME280;44154;45.506;-122.806;2023-03-16T07:19:33;101526.84;;;25.17;32.21
50854;BME280;44154;45.506;-122.806;2023-03-16T07:22:00;101513.63;;;25.02;32.34
50854;BME280;44154;45.506;-122.806;2023-03-16T07:24:27;101527.34;;;25.02;32.34
50854;BME280;44154;45.506;-122.806;2023-03-16T07:26:53;101514.84;;;24.94;32.39
50854;BME280;44154;45.506;-122.806;2023-03-16T07:29:19;101523.06;;;24.94;32.31
50854;BME280;44154;45.506;-122.806;2023-03-16T07:31:46;101527.13;;;24.91;32.43
50854;BME280;44154;45.506;-122.806;2023-03-16T07:34:12;101528.41;;;24.89;32.32
50854;BME280;44154;45.506;-122.806;2023-03-16T07:36:38;101518.31;;;24.89;32.61
50854;BME280;44154;45.506;-122.806;2023-03-16T07:39:05;101523.66;;;24.84;33.09
50854;BME280;44154;45.506;-122.806;2023-03-16T07:41:31;101512.13;;;24.82;33.48
50854;BME280;44154;45.506;-122.806;2023-03-16T07:43:57;101515.22;;;24.74;34.06
50854;BME280;44154;45.506;-122.806;2023-03-16T07:46:24;101492.25;;;24.63;34.10
50854;BME280;44154;45.506;-122.806;2023-03-16T07:48:50;101483.53;;;24.54;34.29
50854;BME280;44154;45.506;-122.806;2023-03-16T07:51:16;101495.69;;;24.58;34.27
50854;BME280;44154;45.506;-122.806;2023-03-16T07:53:42;101500.22;;;24.65;34.55
50854;BME280;44154;45.506;-122.806;2023-03-16T07:56:08;101509.53;;;24.64;36.95
50854;BME280;44154;45.506;-122.806;2023-03-16T07:58:36;101503.34;;;24.68;36.57
50854;BME280;44154;45.506;-122.806;2023-03-16T08:01:02;101491.88;;;24.83;36.22
50854;BME280;44154;45.506;-122.806;2023-03-16T08:03:29;101490.06;;;25.01;35.46
50854;BME280;44154;45.506;-122.806;2023-03-16T08:05:56;101493.91;;;25.00;35.01
50854;BME280;44154;45.506;-122.806;2023-03-16T08:08:23;101484.13;;;24.92;35.10
50854;BME280;44154;45.506;-122.806;2023-03-16T08:10:50;101486.88;;;24.80;35.06
50854;BME280;44154;45.506;-122.806;2023-03-16T08:13:17;101479.03;;;24.72;35.51
50854;BME280;44154;45.506;-122.806;2023-03-16T08:15:47;101481.69;;;24.67;35.22
50854;BME280;44154;45.506;-122.806;2023-03-16T08:18:20;101483.47;;;24.61;35.38
50854;BME280;44154;45.506;-122.806;2023-03-16T08:20:48;101501.63;;;24.55;35.56
50854;BME280;44154;45.506;-122.806;2023-03-16T08:23:15;101494.16;;;24.51;35.54
50854;BME280;44154;45.506;-122.806;2023-03-16T08:25:41;101448.47;;;24.16;35.49
50854;BME280;44154;45.506;-122.806;2023-03-16T08:28:08;101497.59;;;24.46;36.82
50854;BME280;44154;45.506;-122.806;2023-03-16T08:30:35;101493.28;;;24.50;36.97
50854;BME280;44154;45.506;-122.806;2023-03-16T08:33:02;101499.97;;;24.54;36.75
50854;BME280;44154;45.506;-122.806;2023-03-16T08:35:29;101485.47;;;24.66;36.17
50854;BME280;44154;45.506;-122.806;2023-03-16T08:37:55;101489.88;;;24.79;35.89
50854;BME280;44154;45.506;-122.806;2023-03-16T08:40:21;101497.50;;;24.76;35.14
50854;BME280;44154;45.506;-122.806;2023-03-16T08:42:49;101487.16;;;24.67;35.54
50854;BME280;44154;45.506;-122.806;2023-03-16T08:45:16;101490.22;;;24.58;35.57
50854;BME280;44154;45.506;-122.806;2023-03-16T08:47:44;101473.31;;;24.38;35.67
50854;BME280;44154;45.506;-122.806;2023-03-16T08:50:11;101493.44;;;24.44;35.86
50854;BME280;44154;45.506;-122.806;2023-03-16T08:52:40;101493.91;;;24.40;35.81
50854;BME280;44154;45.506;-122.806;2023-03-16T08:55:08;101492.09;;;24.34;35.85
50854;BME280;44154;45.506;-122.806;2023-03-16T08:57:36;101496.63;;;24.29;36.66
50854;BME280;44154;45.506;-122.806;2023-03-16T09:00:04;101487.47;;;24.35;36.73
50854;BME280;44154;45.506;-122.806;2023-03-16T09:02:38;101484.03;;;24.51;36.16
50854;BME280;44154;45.506;-122.806;2023-03-16T09:05:10;101479.66;;;24.62;35.76
50854;BME280;44154;45.506;-122.806;2023-03-16T09:07:37;101482.47;;;24.79;35.66
50854;BME280;44154;45.506;-122.806;2023-03-16T09:10:08;101484.16;;;24.80;35.46
50854;BME280;44154;45.506;-122.806;2023-03-16T09:12:38;101477.97;;;24.73;35.57
50854;BME280;44154;45.506;-122.806;2023-03-16T09:15:06;101479.41;;;24.64;35.31
50854;BME280;44154;45.506;-122.806;2023-03-16T09:17:32;101480.22;;;24.52;35.28
50854;BME280;44154;45.506;-122.806;2023-03-16T09:19:59;101465.69;;;24.40;35.36
50854;BME280;44154;45.506;-122.806;2023-03-16T09:22:26;101472.13;;;24.34;35.52
50854;BME280;44154;45.506;-122.806;2023-03-16T09:24:52;101480.69;;;24.25;35.72
50854;BME280;44154;45.506;-122.806;2023-03-16T09:27:18;101471.50;;;24.20;36.31
50854;BME280;44154;45.506;-122.806;2023-03-16T09:29:45;101472.47;;;24.25;36.52
50854;BME280;44154;45.506;-122.806;2023-03-16T09:32:11;101477.00;;;24.44;35.61
50854;BME280;44154;45.506;-122.806;2023-03-16T09:34:38;101474.28;;;24.55;35.58
50854;BME280;44154;45.506;-122.806;2023-03-16T09:37:04;101480.22;;;24.76;35.15
50854;BME280;44154;45.506;-122.806;2023-03-16T09:39:31;101462.25;;;24.80;35.15
50854;BME280;44154;45.506;-122.806;2023-03-16T09:45:08;101474.03;;;24.69;34.87
50854;BME280;44154;45.506;-122.806;2023-03-16T09:47:37;101479.25;;;24.58;35.08
50854;BME280;44154;45.506;-122.806;2023-03-16T09:50:20;101471.19;;;24.52;35.00
50854;BME280;44154;45.506;-122.806;2023-03-16T09:52:53;101461.31;;;24.39;35.08
50854;BME280;44154;45.506;-122.806;2023-03-16T09:55:36;101467.13;;;24.31;35.15
50854;BME280;44154;45.506;-122.806;2023-03-16T09:58:14;101462.63;;;24.24;35.92
50854;BME280;44154;45.506;-122.806;2023-03-16T10:00:48;101465.59;;;24.23;36.39
50854;BME280;44154;45.506;-122.806;2023-03-16T10:05:51;101470.03;;;24.59;35.08
50854;BME280;44154;45.506;-122.806;2023-03-16T10:08:26;101450.03;;;24.71;34.92
50854;BME280;44154;45.506;-122.806;2023-03-16T10:15:55;101454.06;;;24.68;34.40
50854;BME280;44154;45.506;-122.806;2023-03-16T10:18:27;101450.13;;;24.64;34.49
50854;BME280;44154;45.506;-122.806;2023-03-16T10:20:54;101442.50;;;24.54;34.54
50854;BME280;44154;45.506;-122.806;2023-03-16T10:23:23;101450.47;;;24.44;34.61
50854;BME280;44154;45.506;-122.806;2023-03-16T10:25:54;101441.78;;;24.35;34.81
50854;BME280;44154;45.506;-122.806;2023-03-16T10:28:27;101449.91;;;24.30;35.57
50854;BME280;44154;45.506;-122.806;2023-03-16T10:30:58;101441.91;;;24.29;35.69
50854;BME280;44154;45.506;-122.806;2023-03-16T10:33:27;101438.56;;;24.50;34.80
50854;BME280;44154;45.506;-122.806;2023-03-16T10:36:23;101432.41;;;24.67;34.88
50854;BME280;44154;45.506;-122.806;2023-03-16T10:38:57;101426.53;;;24.87;34.18
50854;BME280;44154;45.506;-122.806;2023-03-16T10:41:32;101412.41;;;24.78;34.17
50854;BME280;44154;45.506;-122.806;2023-03-16T10:46:45;101414.88;;;24.56;33.92
50854;BME280;44154;45.506;-122.806;2023-03-16T10:49:26;101422.63;;;24.59;34.17
50854;BME280;44154;45.506;-122.806;2023-03-16T10:51:54;101420.50;;;24.49;34.29
50854;BME280;44154;45.506;-122.806;2023-03-16T10:54:33;101404.56;;;24.22;34.38
50854;BME280;44154;45.506;-122.806;2023-03-16T10:57:33;101408.38;;;24.21;34.48
50854;BME280;44154;45.506;-122.806;2023-03-16T11:00:13;101420.00;;;24.29;35.54
50854;BME280;44154;45.506;-122.806;2023-03-16T11:02:41;101402.66;;;24.35;34.89
50854;BME280;44154;45.506;-122.806;2023-03-16T11:05:12;101413.13;;;24.62;34.58
50854;BME280;44154;45.506;-122.806;2023-03-16T11:07:50;101403.69;;;24.81;33.95
50854;BME280;44154;45.506;-122.806;2023-03-16T11:10:31;101397.47;;;24.86;33.65
50854;BME280;44154;45.506;-122.806;2023-03-16T11:13:14;101398.09;;;24.76;33.71
50854;BME280;44154;45.506;-122.806;2023-03-16T11:18:32;101402.63;;;24.58;34.09
50854;BME280;44154;45.506;-122.806;2023-03-16T11:23:40;101403.00;;;24.38;34.30
50854;BME280;44154;45.506;-122.806;2023-03-16T11:26:36;101390.56;;;24.19;34.66
50854;BME280;44154;45.506;-122.806;2023-03-16T11:29:08;101404.94;;;24.26;35.31
50854;BME280;44154;45.506;-122.806;2023-03-16T11:31:53;101391.94;;;24.45;34.32
50854;BME280;44154;45.506;-122.806;2023-03-16T11:34:27;101388.69;;;24.72;34.03
50854;BME280;44154;45.506;-122.806;2023-03-16T11:50:12;101386.81;;;24.49;33.77
50854;BME280;44154;45.506;-122.806;2023-03-16T11:58:27;101391.72;;;24.35;34.61
50854;BME280;44154;45.506;-122.806;2023-03-16T12:09:47;101383.34;;;24.77;33.33
50854;BME280;44154;45.506;-122.806;2023-03-16T12:12:34;101384.81;;;24.68;33.28
50854;BME280;44154;45.506;-122.806;2023-03-16T12:17:53;101378.84;;;24.47;33.53
50854;BME280;44154;45.506;-122.806;2023-03-16T12:20:29;101372.09;;;24.38;33.73
50854;BME280;44154;45.506;-122.806;2023-03-16T12:23:07;101373.75;;;24.27;34.29
50854;BME280;44154;45.506;-122.806;2023-03-16T12:25:38;101373.66;;;24.34;34.47
50854;BME280;44154;45.506;-122.806;2023-03-16T12:28:20;101366.97;;;24.53;34.25
50854;BME280;44154;45.506;-122.806;2023-03-16T12:31:07;101359.94;;;24.69;33.29
50854;BME280;44154;45.506;-122.806;2023-03-16T12:42:37;101377.66;;;24.67;33.07
50854;BME280;44154;45.506;-122.806;2023-03-16T12:45:12;101373.16;;;24.61;33.43
50854;BME280;44154;45.506;-122.806;2023-03-16T12:50:28;101381.97;;;24.39;33.67
50854;BME280;44154;45.506;-122.806;2023-03-16T12:52:55;101362.13;;;24.32;33.90
50854;BME280;44154;45.506;-122.806;2023-03-16T12:55:38;101382.03;;;24.56;33.76
50854;BME280;44154;45.506;-122.806;2023-03-16T12:58:06;101370.84;;;24.81;33.34
50854;BME280;44154;45.506;-122.806;2023-03-16T13:00:35;101372.09;;;24.90;32.74
50854;BME280;44154;45.506;-122.806;2023-03-16T13:03:04;101371.63;;;24.93;32.71
50854;BME280;44154;45.506;-122.806;2023-03-16T13:05:33;101367.72;;;24.89;32.66
50854;BME280;44154;45.506;-122.806;2023-03-16T13:08:14;101366.91;;;24.77;32.83
50854;BME280;44154;45.506;-122.806;2023-03-16T13:10:42;101363.88;;;24.62;33.07
50854;BME280;44154;45.506;-122.806;2023-03-16T13:13:24;101358.16;;;24.51;33.11
50854;BME280;44154;45.506;-122.806;2023-03-16T13:16:02;101370.16;;;24.50;32.99
50854;BME280;44154;45.506;-122.806;2023-03-16T13:18:36;101370.31;;;24.44;33.69
50854;BME280;44154;45.506;-122.806;2023-03-16T13:24:25;101339.72;;;24.47;33.49
50854;BME280;44154;45.506;-122.806;2023-03-16T13:26:53;101347.66;;;24.72;32.97
50854;BME280;44154;45.506;-122.806;2023-03-16T13:29:24;101346.09;;;24.76;32.75
50854;BME280;44154;45.506;-122.806;2023-03-16T13:31:56;101350.50;;;24.77;32.58
50854;BME280;44154;45.506;-122.806;2023-03-16T13:34:31;101355.41;;;24.75;33.20
50854;BME280;44154;45.506;-122.806;2023-03-16T13:36:59;101344.00;;;24.66;33.69
50854;BME280;44154;45.506;-122.806;2023-03-16T13:39:30;101357.47;;;24.97;32.50
50854;BME280;44154;45.506;-122.806;2023-03-16T13:42:15;101356.34;;;25.26;32.29
50854;BME280;44154;45.506;-122.806;2023-03-16T13:44:42;101355.34;;;25.44;31.95